Terminal Aerodrome Forecast
Issued by NWS

Home | Current Version | Previous Version | Text Only | Print | Product List | Glossary On
Versions: 1 2 3 4 5 6 7 8 9 10 11 12 13 14 15 16 17 18 19 20 21 22 23 24 25 26 27 28 29 30 31 32 33 34
000
FTUS45 KBYZ 052329
TAFLVM
TAF
KLVM 052329Z 0600/0624 21012G24KT P6SM VCSH FEW120
     FM060700 12016KT P6SM VCSH FEW030 BKN070
     FM061200 10013KT P6SM VCSH SCT015 OVC030=

USA.gov is the U.S. government's official web portal to all federal, state and local government web resources and services.